Time;durP1;ratioP1;P1;durP2;ratioP2;P2;SDS_P1;SDS_P2;PMS_P1;PMS_P2;Temp;Humidity;BMP_temperature;BMP_pressure;BME280_temperature;BME280_humidity;BME280_pressure;Samples;Min_cycle;Max_cycle;Signal;HPM_P1;HPM_P2
2022/06/02 00:00:24;;;;;;;3.85;1.60;;;;;;;20.16;37.74;100064.88;5013802;28;20397;-83
2022/06/02 00:03:08;;;;;;;5.00;1.20;;;;;;;20.17;37.82;100063.00;4985003;28;20044;-83
2022/06/02 00:05:53;;;;;;;2.67;1.48;;;;;;;20.10;37.73;100062.13;4968766;28;20042;-83
2022/06/02 00:08:41;;;;;;;2.72;1.70;;;;;;;20.00;37.58;100069.69;4983898;28;20034;-82
2022/06/02 00:11:20;;;;;;;3.55;1.38;;;;;;;19.98;37.08;100069.06;4959959;28;20053;-82
2022/06/02 00:14:06;;;;;;;1.50;1.20;;;;;;;19.85;37.78;100067.88;5001372;28;20042;-82
2022/06/02 00:16:39;;;;;;;2.05;1.35;;;;;;;19.91;37.40;100074.38;4970313;28;20034;-83
2022/06/02 00:19:08;;;;;;;;;;;;;;;19.73;37.59;100080.19;5018543;28;20048;-82
2022/06/02 00:21:42;;;;;;;3.08;1.30;;;;;;;19.77;37.42;100075.22;5002379;28;19925;-80
2022/06/02 00:24:33;;;;;;;3.95;1.35;;;;;;;19.61;37.66;100076.25;4974887;28;20125;-80
2022/06/02 00:27:22;;;;;;;4.95;1.85;;;;;;;19.65;37.17;100080.25;4939992;28;20721;-80
2022/06/02 00:30:07;;;;;;;3.50;1.50;;;;;;;19.57;37.47;100083.91;4972990;28;20121;-80
2022/06/02 00:32:36;;;;;;;2.30;1.27;;;;;;;19.60;37.58;100090.75;4971648;28;20100;-80
2022/06/02 00:35:13;;;;;;;3.80;1.40;;;;;;;19.49;37.76;100092.09;4995194;28;20046;-82
2022/06/02 00:37:58;;;;;;;2.90;1.58;;;;;;;19.51;37.38;100088.19;4996326;28;20049;-82
2022/06/02 00:40:27;;;;;;;1.60;1.50;;;;;;;19.45;37.39;100088.91;4985252;28;20061;-82
2022/06/02 00:43:29;;;;;;;3.95;1.40;;;;;;;19.34;37.71;100085.88;4966054;28;20091;-80
2022/06/02 00:46:15;;;;;;;2.78;1.60;;;;;;;19.40;37.62;100088.63;4962640;28;20126;-80
2022/06/02 00:49:07;;;;;;;1.80;1.60;;;;;;;19.48;37.18;100085.84;4956240;28;20115;-80
2022/06/02 00:51:59;;;;;;;3.08;1.45;;;;;;;19.57;38.13;100086.59;4957140;28;20053;-80
2022/06/02 00:57:35;;;;;;;3.33;1.63;;;;;;;19.63;38.43;100098.47;4990466;28;20041;-80
2022/06/02 01:00:19;;;;;;;2.20;1.38;;;;;;;19.62;38.54;100100.31;4982943;28;20042;-87
2022/06/02 01:03:09;;;;;;;2.75;1.40;;;;;;;19.60;39.08;100107.75;4973402;28;20046;-85
2022/06/02 01:05:45;;;;;;;3.10;1.35;;;;;;;19.57;38.48;100107.31;4981925;28;20060;-86
2022/06/02 01:08:38;;;;;;;2.50;1.20;;;;;;;19.49;39.22;100103.69;4993660;28;20454;-87
2022/06/02 01:11:14;;;;;;;2.88;1.48;;;;;;;19.47;39.48;100113.81;4956970;28;20394;-88
2022/06/02 01:14:08;;;;;;;1.50;1.30;;;;;;;19.42;39.60;100116.22;4980378;28;20144;-80
2022/06/02 01:17:02;;;;;;;3.08;1.90;;;;;;;19.40;39.80;100114.75;4953395;28;20386;-80
2022/06/02 01:19:56;;;;;;;1.30;1.17;;;;;;;19.37;39.17;100115.94;4974198;28;20053;-80
2022/06/02 01:22:58;;;;;;;2.45;1.42;;;;;;;19.31;39.90;100114.00;4977949;28;20092;-80
2022/06/02 01:26:06;;;;;;;2.35;1.35;;;;;;;19.29;40.05;100122.25;4955926;28;20077;-79
2022/06/02 01:28:50;;;;;;;2.25;1.40;;;;;;;19.26;39.38;100119.94;4920865;28;20072;-80
2022/06/02 01:31:36;;;;;;;3.47;1.48;;;;;;;19.22;40.06;100131.25;4968363;28;20045;-80
2022/06/02 01:34:22;;;;;;;2.85;1.35;;;;;;;19.12;40.36;100133.38;4966647;28;20045;-79
2022/06/02 01:37:09;;;;;;;3.05;1.52;;;;;;;19.03;41.40;100128.09;4961805;28;20045;-79
2022/06/02 01:39:42;;;;;;;3.85;1.35;;;;;;;18.98;41.27;100135.03;4949052;28;20049;-82
2022/06/02 01:42:11;;;;;;;;;;;;;;;18.90;41.93;100133.25;4990848;28;20045;-83
2022/06/02 01:44:46;;;;;;;1.38;1.27;;;;;;;18.92;41.70;100135.78;4984537;28;19971;-82
2022/06/02 01:47:21;;;;;;;2.00;1.30;;;;;;;18.87;41.70;100136.31;4966623;28;20068;-82
2022/06/02 01:50:12;;;;;;;2.70;1.25;;;;;;;18.84;41.38;100142.06;4998210;28;20037;-80
2022/06/02 01:52:43;;;;;;;1.75;1.45;;;;;;;18.81;41.13;100142.44;4984832;28;20539;-80
2022/06/02 01:55:21;;;;;;;2.15;1.42;;;;;;;18.78;41.43;100142.81;5010224;28;20041;-80
2022/06/02 01:58:23;;;;;;;2.47;1.55;;;;;;;18.71;41.28;100141.81;4940321;28;20041;-80
2022/06/02 02:01:01;;;;;;;2.20;1.73;;;;;;;18.64;41.26;100149.75;4944019;28;20511;-80
2022/06/02 02:03:59;;;;;;;2.30;1.40;;;;;;;18.52;42.80;100148.50;4966720;28;20058;-80
2022/06/02 02:06:46;;;;;;;1.52;1.40;;;;;;;18.43;43.46;100147.75;4922411;28;20498;-82
2022/06/02 02:09:30;;;;;;;3.13;1.63;;;;;;;18.38;43.39;100155.50;4983515;28;20041;-82
2022/06/02 02:11:59;;;;;;;2.65;1.52;;;;;;;18.38;42.82;100156.34;4944541;28;20453;-82
2022/06/02 02:14:51;;;;;;;1.85;1.70;;;;;;;18.32;43.41;100151.69;5001609;28;20436;-87
2022/06/02 02:17:23;;;;;;;1.92;1.75;;;;;;;18.31;42.60;100154.53;4974941;28;20050;-88
2022/06/02 02:19:59;;;;;;;1.60;1.50;;;;;;;18.26;42.25;100157.75;4989102;28;20042;-88
2022/06/02 02:22:55;;;;;;;1.75;1.52;;;;;;;18.22;42.55;100159.16;4983267;28;22938;-88
2022/06/02 02:25:57;;;;;;;1.65;1.38;;;;;;;18.18;43.06;100163.19;4902757;28;20093;-80
2022/06/02 02:29:14;;;;;;;4.10;1.50;;;;;;;18.16;42.51;100168.72;4943763;28;20042;-87
2022/06/02 02:32:19;;;;;;;2.28;1.50;;;;;;;18.10;42.74;100158.69;4925410;28;20041;-80
2022/06/02 02:35:06;;;;;;;1.95;1.40;;;;;;;18.10;42.53;100165.94;4947181;28;20050;-82
2022/06/02 02:37:39;;;;;;;3.40;1.67;;;;;;;18.06;42.91;100169.97;4959876;28;20041;-83
2022/06/02 02:40:14;;;;;;;2.20;1.30;;;;;;;18.02;42.77;100174.03;4999975;28;20045;-82
2022/06/02 02:42:51;;;;;;;3.42;1.50;;;;;;;17.98;42.83;100173.53;4998157;28;20390;-82
2022/06/02 02:45:37;;;;;;;4.22;1.63;;;;;;;17.90;43.26;100173.59;5000566;28;20108;-82
2022/06/02 02:48:12;;;;;;;2.97;1.60;;;;;;;17.90;43.29;100173.59;4951804;28;20065;-82
2022/06/02 02:50:51;;;;;;;1.70;1.40;;;;;;;17.83;43.82;100170.75;4988120;28;20489;-82
2022/06/02 02:53:24;;;;;;;1.65;1.50;;;;;;;17.78;43.41;100168.56;4985544;28;20042;-82
2022/06/02 02:56:00;;;;;;;2.88;1.70;;;;;;;17.69;43.57;100166.94;4959672;28;21140;-82
2022/06/02 02:59:03;;;;;;;4.68;1.75;;;;;;;17.68;44.00;100170.63;5002212;28;20049;-82
2022/06/02 03:02:05;;;;;;;1.55;1.30;;;;;;;17.66;44.06;100171.81;4988707;28;20490;-85
2022/06/02 03:04:56;;;;;;;3.38;1.80;;;;;;;17.61;43.96;100172.34;4948977;28;20124;-83
2022/06/02 03:07:23;;;;;;;2.55;1.73;;;;;;;17.60;43.50;100175.19;5004962;28;20049;-84
2022/06/02 03:10:07;;;;;;;2.08;1.50;;;;;;;17.54;43.82;100177.53;5018587;28;20042;-83
2022/06/02 03:13:14;;;;;;;2.53;1.77;;;;;;;17.48;44.06;100174.72;4943230;28;20510;-77
2022/06/02 03:16:02;;;;;;;2.92;1.70;;;;;;;17.45;43.97;100189.31;4927391;28;20040;-77
2022/06/02 03:18:35;;;;;;;1.85;1.75;;;;;;;17.43;43.93;100190.47;4973525;28;20053;-77
2022/06/02 03:21:29;;;;;;;1.70;1.60;;;;;;;17.32;44.96;100192.53;5005659;28;20053;-76
2022/06/02 03:24:10;;;;;;;4.22;2.00;;;;;;;17.28;45.73;100193.88;4949016;28;20132;-78
2022/06/02 03:26:48;;;;;;;5.30;1.95;;;;;;;17.25;45.90;100196.06;4960361;28;20375;-76
2022/06/02 03:29:38;;;;;;;3.70;1.73;;;;;;;17.18;46.25;100195.09;4949907;28;20068;-77
2022/06/02 03:32:26;;;;;;;2.97;2.10;;;;;;;17.16;45.62;100197.94;4938426;28;20062;-80
2022/06/02 03:35:04;;;;;;;3.45;1.80;;;;;;;17.12;45.67;100202.81;4960000;28;20053;-76
2022/06/02 03:37:33;;;;;;;3.05;1.95;;;;;;;17.14;45.23;100202.63;4977914;28;20052;-77
2022/06/02 03:40:18;;;;;;;2.40;1.73;;;;;;;17.07;45.56;100205.16;5017732;28;20045;-76
2022/06/02 03:43:06;;;;;;;4.18;2.00;;;;;;;17.09;45.18;100204.97;4951604;28;20041;-76
2022/06/02 03:45:39;;;;;;;4.25;2.40;;;;;;;17.07;44.98;100202.47;4936849;28;20126;-77
2022/06/02 03:48:30;;;;;;;4.40;1.80;;;;;;;17.25;45.23;100206.78;4971920;28;20042;-77
2022/06/02 03:51:01;;;;;;;2.90;2.03;;;;;;;17.79;45.38;100196.28;4933178;28;20053;-80
2022/06/02 03:53:53;;;;;;;4.35;2.17;;;;;;;18.15;44.40;100203.88;5001933;28;20053;-79
2022/06/02 03:56:28;;;;;;;2.13;2.00;;;;;;;18.45;43.46;100204.88;4977295;28;20481;-77
2022/06/02 03:59:16;;;;;;;3.60;2.83;;;;;;;18.62;43.13;100206.44;4989603;28;20670;-77
2022/06/02 04:01:51;;;;;;;3.38;1.90;;;;;;;18.66;42.53;100209.59;4966911;28;20058;-77
2022/06/02 04:04:54;;;;;;;2.17;1.98;;;;;;;18.65;42.28;100208.78;4940151;28;20051;-77
2022/06/02 04:07:35;;;;;;;4.00;2.33;;;;;;;18.70;42.40;100210.06;4923996;28;20130;-77
2022/06/02 04:10:18;;;;;;;3.80;2.13;;;;;;;18.72;42.24;100214.25;4947555;28;20042;-77
2022/06/02 04:16:04;;;;;;;3.55;2.08;;;;;;;18.77;41.88;100217.28;4958845;28;20041;-77
2022/06/02 04:18:49;;;;;;;2.17;2.00;;;;;;;19.08;41.83;100219.03;4947393;28;20058;-75
2022/06/02 04:21:37;;;;;;;5.30;2.13;;;;;;;19.15;41.61;100228.06;4919243;28;20495;-78
2022/06/02 04:24:19;;;;;;;2.40;2.17;;;;;;;19.09;41.50;100231.50;4949065;28;20443;-78
2022/06/02 04:27:03;;;;;;;2.90;2.40;;;;;;;19.12;41.33;100227.59;4930411;28;20494;-77
2022/06/02 04:29:38;;;;;;;3.60;2.33;;;;;;;19.03;41.46;100225.00;4951301;28;20050;-74
2022/06/02 04:32:43;;;;;;;3.47;2.00;;;;;;;18.98;41.46;100230.06;4962742;28;20430;-74
2022/06/02 04:35:19;;;;;;;2.65;1.85;;;;;;;19.03;41.31;100230.38;4959020;28;20046;-77
2022/06/02 04:38:07;;;;;;;4.25;2.15;;;;;;;19.04;41.54;100233.91;4969004;28;20046;-78
2022/06/02 04:40:54;;;;;;;2.33;2.05;;;;;;;18.97;41.41;100233.78;4955562;28;20152;-77
2022/06/02 04:44:14;;;;;;;4.03;2.45;;;;;;;18.74;41.99;100235.59;4937419;28;20069;-78
2022/06/02 04:47:06;;;;;;;3.42;2.17;;;;;;;18.60;41.97;100242.59;4887017;28;20179;-77
2022/06/02 04:49:57;;;;;;;2.42;2.10;;;;;;;18.53;41.95;100231.72;4971214;28;20409;-77
2022/06/02 04:52:45;;;;;;;4.13;2.20;;;;;;;18.46;42.29;100246.03;4989571;28;20069;-77
2022/06/02 04:55:34;;;;;;;3.65;2.30;;;;;;;18.27;42.57;100242.78;4978066;28;20397;-77
2022/06/02 04:58:31;;;;;;;9.02;2.70;;;;;;;18.17;42.64;100247.53;4965768;28;20045;-77
2022/06/02 05:01:22;;;;;;;3.92;2.20;;;;;;;18.08;42.70;100248.56;4972896;28;20046;-77
2022/06/02 05:04:10;;;;;;;2.90;2.60;;;;;;;18.02;42.65;100241.22;4977984;28;20041;-78
2022/06/02 05:06:51;;;;;;;4.75;2.47;;;;;;;17.95;42.95;100241.91;4969370;28;20054;-82
2022/06/02 05:09:37;;;;;;;2.42;2.22;;;;;;;17.85;43.54;100237.75;4950087;28;20050;-81
2022/06/02 05:12:32;;;;;;;2.58;2.28;;;;;;;17.82;43.46;100251.53;4972218;28;20042;-78
2022/06/02 05:15:06;;;;;;;3.67;2.35;;;;;;;17.77;43.49;100252.00;4939585;28;20084;-79
2022/06/02 05:17:55;;;;;;;2.60;2.40;;;;;;;17.69;43.66;100243.97;5009935;28;20037;-79
2022/06/02 05:20:41;;;;;;;3.55;2.25;;;;;;;17.76;43.95;100253.88;4971700;28;20129;-79
2022/06/02 05:23:27;;;;;;;3.92;2.58;;;;;;;17.76;44.00;100251.19;4987254;28;20045;-78
2022/06/02 05:26:09;;;;;;;5.43;2.65;;;;;;;17.84;44.20;100252.19;4982305;28;20549;-78
2022/06/02 05:28:49;;;;;;;5.07;2.75;;;;;;;17.82;44.36;100249.69;4976527;28;20071;-86
2022/06/02 05:31:30;;;;;;;5.35;2.28;;;;;;;17.89;44.36;100256.03;4982884;28;20038;-85
2022/06/02 05:34:08;;;;;;;3.78;2.45;;;;;;;18.01;43.75;100256.47;4997451;28;20095;-85
2022/06/02 05:36:46;;;;;;;3.22;2.67;;;;;;;18.07;44.02;100254.97;4956370;28;20046;-82
2022/06/02 05:39:47;;;;;;;6.05;2.50;;;;;;;18.08;43.80;100256.63;4998927;28;20503;-81
2022/06/02 05:42:19;;;;;;;3.67;2.60;;;;;;;18.09;43.92;100255.63;4949493;28;20444;-78
2022/06/02 05:45:04;;;;;;;4.13;2.70;;;;;;;18.15;43.53;100265.69;5007255;28;20045;-78
2022/06/02 05:47:37;;;;;;;3.97;3.00;;;;;;;18.14;43.76;100264.84;4981399;28;20049;-78
2022/06/02 05:50:31;;;;;;;4.25;3.00;;;;;;;18.11;44.20;100265.19;4996104;28;20046;-79
2022/06/02 05:53:21;;;;;;;2.97;2.60;;;;;;;18.20;44.14;100264.13;4975617;28;20126;-78
2022/06/02 05:56:33;;;;;;;6.45;2.80;;;;;;;18.20;44.01;100263.31;4984831;28;20053;-78
2022/06/02 05:59:18;;;;;;;3.55;3.10;;;;;;;18.28;44.09;100255.19;4919535;28;20524;-79
2022/06/02 06:01:56;;;;;;;8.73;3.15;;;;;;;18.22;44.30;100254.06;4967759;28;20053;-79
2022/06/02 06:04:57;;;;;;;3.92;2.65;;;;;;;18.05;44.64;100260.50;4999013;28;20494;-78
2022/06/02 06:07:36;;;;;;;5.78;3.00;;;;;;;18.02;44.15;100268.94;4942445;28;20045;-79
2022/06/02 06:10:35;;;;;;;5.22;2.75;;;;;;;18.10;44.18;100271.56;4972770;28;20128;-78
2022/06/02 06:13:08;;;;;;;3.78;2.58;;;;;;;18.11;43.91;100278.63;4937025;28;20053;-78
2022/06/02 06:15:43;;;;;;;4.32;2.63;;;;;;;18.20;44.21;100271.38;4997144;28;20041;-78
2022/06/02 06:18:30;;;;;;;4.07;2.58;;;;;;;18.23;43.54;100260.25;4989160;28;20504;-78
2022/06/02 06:21:13;;;;;;;2.95;2.65;;;;;;;18.32;43.96;100272.66;4918260;28;20045;-78
2022/06/02 06:23:41;;;;;;;;;;;;;;;18.43;43.92;100274.13;4931970;28;20035;-79
2022/06/02 06:26:33;;;;;;;6.63;2.70;;;;;;;18.47;43.30;100269.22;4965058;28;20286;-82
2022/06/02 06:29:26;;;;;;;2.50;2.30;;;;;;;18.48;43.53;100273.59;4949131;28;20053;-79
2022/06/02 06:32:03;;;;;;;2.53;2.33;;;;;;;18.48;43.03;100273.59;4929094;28;20046;-78
2022/06/02 06:34:57;;;;;;;3.90;2.58;;;;;;;18.56;42.78;100273.53;4940555;28;20054;-79
2022/06/02 06:37:38;;;;;;;5.55;2.67;;;;;;;18.61;42.84;100271.16;4943704;28;20046;-79
2022/06/02 06:40:16;;;;;;;3.60;2.40;;;;;;;18.59;42.37;100271.31;4960202;28;21133;-79
2022/06/02 06:43:47;;;;;;;4.22;2.78;;;;;;;18.47;42.72;100270.06;4954315;28;20051;-78
2022/06/02 06:46:24;;;;;;;3.78;2.72;;;;;;;18.49;42.37;100278.78;4828760;28;20101;-78
2022/06/02 06:49:09;;;;;;;6.25;2.60;;;;;;;18.62;42.66;100278.19;4932894;28;20648;-78
2022/06/02 06:52:13;;;;;;;4.13;2.40;;;;;;;18.68;42.84;100271.31;4971918;28;20076;-79
2022/06/02 06:55:08;;;;;;;6.93;2.55;;;;;;;18.87;43.07;100271.69;4987206;28;20560;-78
2022/06/02 06:58:03;;;;;;;5.85;2.20;;;;;;;18.79;42.52;100274.44;4939359;28;20050;-79
2022/06/02 07:00:46;;;;;;;2.58;2.38;;;;;;;18.75;42.60;100267.75;4947148;28;20049;-79
2022/06/02 07:03:23;;;;;;;;;;;;;;;18.78;42.51;100267.38;4973186;28;20054;-79
2022/06/02 07:05:58;;;;;;;2.95;2.50;;;;;;;18.77;42.61;100265.69;5008057;28;20377;-79
2022/06/02 07:08:44;;;;;;;2.88;2.35;;;;;;;18.86;42.47;100269.19;4995520;28;20547;-81
2022/06/02 07:14:21;;;;;;;3.83;2.50;;;;;;;18.99;41.04;100276.66;4935157;28;20046;-79
2022/06/02 07:16:55;;;;;;;4.38;2.30;;;;;;;19.03;41.26;100270.75;4982936;28;20622;-79
2022/06/02 07:19:32;;;;;;;3.17;1.73;;;;;;;19.08;41.12;100273.72;4997597;28;20135;-79
2022/06/02 07:22:31;;;;;;;3.63;2.10;;;;;;;19.10;39.82;100273.53;4981923;28;20482;-79
2022/06/02 07:25:14;;;;;;;2.42;2.10;;;;;;;19.23;40.34;100275.63;4985014;28;20149;-79
2022/06/02 07:27:51;;;;;;;2.58;1.95;;;;;;;19.16;40.08;100277.34;4954055;28;20058;-79
2022/06/02 07:30:51;;;;;;;3.25;2.22;;;;;;;19.09;40.62;100272.69;4976088;28;20041;-79
2022/06/02 07:33:37;;;;;;;5.28;2.40;;;;;;;19.29;40.47;100280.28;4960328;28;20178;-79
2022/06/02 07:36:30;;;;;;;2.72;2.00;;;;;;;19.26;40.28;100276.09;4990915;28;20050;-79
2022/06/02 07:39:23;;;;;;;3.20;2.10;;;;;;;19.21;39.96;100272.25;4947774;28;20118;-79
2022/06/02 07:42:17;;;;;;;4.32;2.00;;;;;;;19.23;40.34;100264.84;4962697;28;20124;-79
2022/06/02 07:45:04;;;;;;;4.47;2.20;;;;;;;19.34;39.97;100263.59;4941949;28;20129;-81
2022/06/02 07:47:50;;;;;;;2.40;2.20;;;;;;;19.09;40.45;100269.19;4962149;28;20041;-82
2022/06/02 07:50:24;;;;;;;2.80;2.17;;;;;;;19.23;40.22;100263.00;4963070;28;20050;-82
2022/06/02 07:52:57;;;;;;;2.03;1.83;;;;;;;19.29;40.06;100278.44;4979752;28;20166;-82
2022/06/02 07:55:36;;;;;;;2.42;1.58;;;;;;;19.17;38.36;100273.66;4993147;28;20448;-82
2022/06/02 07:58:16;;;;;;;4.82;2.15;;;;;;;19.18;39.07;100267.25;4986968;28;20046;-82
2022/06/02 08:01:17;;;;;;;2.08;1.95;;;;;;;19.09;39.37;100269.19;5000027;28;20497;-82
2022/06/02 08:03:47;;;;;;;2.22;1.88;;;;;;;19.11;40.23;100272.53;4909638;28;20271;-84
2022/06/02 08:06:40;;;;;;;2.60;1.70;;;;;;;19.20;39.26;100279.50;5007483;28;20049;-84
2022/06/02 08:09:38;;;;;;;1.58;1.48;;;;;;;19.17;38.84;100281.72;4971824;28;20230;-85
2022/06/02 08:12:30;;;;;;;2.03;1.60;;;;;;;19.21;38.90;100283.03;4945678;28;20508;-84
2022/06/02 08:15:02;;;;;;;1.88;1.70;;;;;;;19.38;39.13;100284.56;4968160;28;20045;-85
2022/06/02 08:17:35;;;;;;;5.30;1.30;;;;;;;19.38;38.39;100281.88;4992943;28;20104;-85
2022/06/02 08:20:07;;;;;;;2.25;1.55;;;;;;;19.43;38.35;100281.34;5002813;28;20037;-85
2022/06/02 08:22:40;;;;;;;2.75;1.50;;;;;;;19.37;39.10;100282.91;4998678;28;20054;-85
2022/06/02 08:25:12;;;;;;;2.45;1.50;;;;;;;19.36;39.30;100278.56;4984310;28;20382;-81
2022/06/02 08:28:04;;;;;;;3.70;1.88;;;;;;;19.39;38.11;100278.19;5002128;28;20520;-81
2022/06/02 08:30:40;;;;;;;1.20;1.10;;;;;;;19.36;38.06;100280.38;4937416;28;20061;-81
2022/06/02 08:33:23;;;;;;;2.25;1.60;;;;;;;19.41;38.40;100269.91;4969555;28;20046;-81
2022/06/02 08:35:52;;;;;;;2.65;1.48;;;;;;;19.51;38.99;100275.88;4989387;28;20466;-81
2022/06/02 08:38:49;;;;;;;1.38;1.27;;;;;;;19.46;39.03;100267.50;4996002;28;20045;-81
2022/06/02 08:41:37;;;;;;;1.65;1.27;;;;;;;19.57;38.74;100277.00;4928293;28;20235;-81
2022/06/02 08:44:07;;;;;;;2.20;1.30;;;;;;;19.62;39.46;100267.34;4956879;28;20498;-81
2022/06/02 08:46:49;;;;;;;1.67;1.50;;;;;;;19.66;39.59;100263.25;4994864;28;20052;-82
2022/06/02 08:49:54;;;;;;;3.05;1.73;;;;;;;19.75;39.34;100269.44;4995783;28;20069;-81
2022/06/02 08:52:51;;;;;;;2.15;1.33;;;;;;;19.75;39.89;100280.22;4946570;28;20095;-81
2022/06/02 08:55:29;;;;;;;1.45;1.35;;;;;;;19.90;38.59;100267.59;4988822;28;20408;-81
2022/06/02 08:58:42;;;;;;;2.85;1.73;;;;;;;19.69;38.65;100265.63;4999197;28;20053;-81
2022/06/02 09:01:27;;;;;;;1.50;1.40;;;;;;;19.77;38.66;100261.16;4953317;28;20054;-81
2022/06/02 09:04:37;;;;;;;1.53;1.30;;;;;;;19.71;38.16;100262.72;4951477;28;20133;-81
2022/06/02 09:07:31;;;;;;;1.83;1.35;;;;;;;19.71;37.62;100268.94;4948267;28;20046;-81
2022/06/02 09:10:35;;;;;;;1.48;1.38;;;;;;;19.57;38.08;100275.16;4921568;28;20099;-81
2022/06/02 09:13:13;;;;;;;3.03;1.50;;;;;;;19.64;38.06;100269.84;4937566;28;20050;-81
2022/06/02 09:15:50;;;;;;;1.77;1.30;;;;;;;19.81;38.57;100260.59;4990501;28;20038;-79
2022/06/02 09:18:55;;;;;;;1.88;1.27;;;;;;;19.67;38.81;100270.38;4983595;28;20046;-79
2022/06/02 09:22:15;;;;;;;1.60;1.50;;;;;;;19.82;37.32;100256.91;4935216;28;20128;-79
2022/06/02 09:25:07;;;;;;;1.50;1.40;;;;;;;19.70;37.48;100271.84;4931919;28;20049;-81
2022/06/02 09:27:53;;;;;;;3.55;1.55;;;;;;;19.70;38.18;100271.84;4966567;28;20418;-79
2022/06/02 09:30:44;;;;;;;1.65;1.33;;;;;;;19.59;37.26;100269.56;5003248;28;20373;-79
2022/06/02 09:33:58;;;;;;;1.33;1.23;;;;;;;19.87;37.65;100264.41;4951913;28;20053;-79
2022/06/02 09:36:43;;;;;;;2.33;1.63;;;;;;;19.88;37.23;100260.72;4908435;28;20243;-79
2022/06/02 09:39:34;;;;;;;2.03;1.52;;;;;;;19.90;38.27;100258.66;4954265;28;20049;-79
2022/06/02 09:42:07;;;;;;;2.40;1.40;;;;;;;19.97;38.31;100258.75;4957649;28;20049;-79
2022/06/02 09:44:52;;;;;;;1.23;1.13;;;;;;;19.93;37.78;100259.13;4943303;28;20109;-79
2022/06/02 09:47:28;;;;;;;2.42;1.30;;;;;;;19.92;37.24;100253.91;4938566;28;20488;-79
2022/06/02 09:50:16;;;;;;;1.45;1.30;;;;;;;19.77;37.06;100261.16;4927228;28;20133;-79
2022/06/02 09:53:01;;;;;;;1.95;1.25;;;;;;;19.94;36.50;100263.47;4923743;28;20043;-79
2022/06/02 09:55:54;;;;;;;3.90;1.77;;;;;;;20.01;37.05;100268.97;4925477;28;20486;-79
2022/06/02 09:58:43;;;;;;;2.70;1.23;;;;;;;20.05;37.00;100258.63;4931563;28;20451;-79
2022/06/02 10:01:28;;;;;;;2.40;1.33;;;;;;;20.17;37.63;100257.16;4938346;28;20567;-81
2022/06/02 10:04:20;;;;;;;1.70;1.00;;;;;;;20.12;39.07;100260.44;4922917;28;20063;-81
2022/06/02 10:07:02;;;;;;;2.47;1.30;;;;;;;20.29;37.19;100262.91;4940112;28;22593;-82
2022/06/02 10:09:43;;;;;;;4.03;1.50;;;;;;;20.31;37.96;100264.38;4896097;28;20093;-82
2022/06/02 10:12:55;;;;;;;2.13;1.20;;;;;;;20.30;37.57;100262.72;4962374;28;20366;-81
2022/06/02 10:15:40;;;;;;;2.17;1.20;;;;;;;20.28;37.52;100262.06;4948709;28;20064;-81
2022/06/02 10:18:25;;;;;;;1.75;1.40;;;;;;;20.53;38.11;100264.41;4971780;28;20065;-81
2022/06/02 10:21:24;;;;;;;1.52;1.10;;;;;;;20.36;38.30;100263.81;4984238;28;20145;-81
2022/06/02 10:24:15;;;;;;;1.63;1.45;;;;;;;20.37;38.28;100262.78;4949457;28;20052;-81
2022/06/02 10:27:45;;;;;;;2.97;1.38;;;;;;;20.45;38.93;100259.97;4973347;28;20517;-81
2022/06/02 10:30:22;;;;;;;1.85;1.45;;;;;;;20.59;38.73;100240.25;4933218;28;20075;-79
2022/06/02 10:33:13;;;;;;;1.63;1.08;;;;;;;20.55;39.22;100246.22;5012390;28;20099;-79
2022/06/02 10:35:55;;;;;;;1.60;1.20;;;;;;;20.68;38.54;100248.22;4960879;28;20390;-79
2022/06/02 10:39:00;;;;;;;1.58;1.40;;;;;;;20.78;37.75;100237.94;4984110;28;20053;-79
2022/06/02 10:41:45;;;;;;;1.42;1.33;;;;;;;20.93;37.54;100246.81;4946155;28;20076;-79
2022/06/02 10:44:17;;;;;;;1.65;1.55;;;;;;;20.99;37.02;100237.97;4978708;28;20588;-79
2022/06/02 10:47:08;;;;;;;2.67;1.42;;;;;;;21.04;36.67;100240.09;4974411;28;20061;-80
2022/06/02 10:49:59;;;;;;;3.47;1.77;;;;;;;20.95;36.18;100242.06;4969371;28;20045;-80
2022/06/02 10:53:19;;;;;;;2.38;1.48;;;;;;;20.77;37.29;100242.50;4961543;28;20121;-85
2022/06/02 10:56:13;;;;;;;2.05;1.70;;;;;;;20.78;36.80;100237.94;4898273;28;20102;-85
2022/06/02 10:58:59;;;;;;;1.50;1.15;;;;;;;20.98;37.27;100240.84;4943840;28;20043;-82
2022/06/02 11:01:58;;;;;;;2.00;1.13;;;;;;;21.02;38.19;100244.84;4938186;28;20474;-82
2022/06/02 11:05:15;;;;;;;1.92;1.55;;;;;;;20.98;36.83;100235.44;4927678;28;20049;-80
2022/06/02 11:08:41;;;;;;;2.50;1.48;;;;;;;21.05;37.00;100225.53;4875303;28;20115;-80
2022/06/02 11:11:35;;;;;;;1.25;1.15;;;;;;;21.13;37.43;100219.16;4887853;28;20046;-79
2022/06/02 11:14:21;;;;;;;3.97;1.25;;;;;;;21.19;36.90;100226.47;4933362;28;20082;-81
2022/06/02 11:17:40;;;;;;;3.10;1.30;;;;;;;21.15;37.27;100226.03;4985276;28;20038;-81
2022/06/02 11:20:15;;;;;;;2.17;1.50;;;;;;;21.11;37.76;100218.53;4919297;28;20041;-81
2022/06/02 11:23:04;;;;;;;3.42;1.33;;;;;;;21.02;37.57;100226.75;5010263;28;20049;-81
2022/06/02 11:26:01;;;;;;;2.25;1.30;;;;;;;20.98;37.32;100213.84;4920580;28;20160;-81
2022/06/02 11:28:36;;;;;;;1.55;1.30;;;;;;;21.08;37.04;100208.13;4953424;28;20383;-82
2022/06/02 11:31:23;;;;;;;4.00;1.33;;;;;;;20.99;37.12;100213.66;4978956;28;20050;-81
2022/06/02 11:34:10;;;;;;;2.38;1.17;;;;;;;21.18;37.68;100216.72;4996934;28;20503;-81
2022/06/02 11:36:58;;;;;;;2.40;1.30;;;;;;;21.27;37.64;100212.84;4964330;28;20050;-81
2022/06/02 11:39:40;;;;;;;1.73;1.50;;;;;;;21.39;36.99;100218.56;5004984;28;20129;-81
2022/06/02 11:42:25;;;;;;;2.35;1.23;;;;;;;21.24;37.00;100214.06;4978483;28;20042;-85
2022/06/02 11:45:16;;;;;;;1.90;1.30;;;;;;;21.34;37.63;100208.31;4968659;28;20042;-85
2022/06/02 11:48:02;;;;;;;3.67;1.23;;;;;;;21.54;37.12;100207.66;4972564;28;20119;-85
2022/06/02 11:50:59;;;;;;;1.40;1.27;;;;;;;21.51;36.86;100211.56;5000706;28;20448;-81
2022/06/02 11:53:59;;;;;;;1.85;1.23;;;;;;;21.51;35.86;100210.75;4974375;28;20053;-82
2022/06/02 11:56:31;;;;;;;1.20;1.10;;;;;;;21.57;36.37;100209.94;4984460;28;20069;-84
2022/06/02 11:59:22;;;;;;;1.88;1.50;;;;;;;21.60;36.55;100198.72;4991645;28;20116;-85
2022/06/02 12:02:10;;;;;;;3.65;1.55;;;;;;;21.54;36.44;100204.94;4982705;28;20394;-85
2022/06/02 12:05:00;;;;;;;1.52;1.40;;;;;;;21.36;36.45;100218.94;4953742;28;20034;-81
2022/06/02 12:07:45;;;;;;;1.77;1.30;;;;;;;21.30;35.95;100204.34;4968048;28;20053;-81
2022/06/02 12:10:34;;;;;;;2.15;1.40;;;;;;;21.37;37.11;100196.28;4977601;28;20042;-85
2022/06/02 12:13:18;;;;;;;1.58;1.48;;;;;;;21.25;37.03;100187.91;4956995;28;20053;-85
2022/06/02 12:15:55;;;;;;;1.67;1.35;;;;;;;21.34;37.14;100175.88;5004187;28;20049;-82
2022/06/02 12:18:59;;;;;;;1.85;1.30;;;;;;;21.41;36.61;100181.38;4986813;28;20041;-82
2022/06/02 12:21:50;;;;;;;1.40;1.30;;;;;;;21.53;37.43;100179.78;4910735;28;20057;-82
2022/06/02 12:24:44;;;;;;;2.55;1.40;;;;;;;21.45;37.35;100188.91;4970888;28;20440;-82
2022/06/02 12:27:52;;;;;;;2.58;1.50;;;;;;;21.56;36.42;100195.59;4955315;28;20160;-81
2022/06/02 12:30:31;;;;;;;2.08;1.30;;;;;;;21.58;37.23;100185.44;4939479;28;20045;-82
2022/06/02 12:33:22;;;;;;;1.35;1.25;;;;;;;21.64;36.19;100187.34;4978732;28;20095;-82
2022/06/02 12:36:11;;;;;;;4.57;1.40;;;;;;;21.67;37.16;100192.34;4938030;28;20046;-81
2022/06/02 12:39:02;;;;;;;1.55;1.40;;;;;;;21.81;36.91;100181.63;4963598;28;20050;-81
2022/06/02 12:41:52;;;;;;;2.55;1.60;;;;;;;21.84;36.56;100175.81;4992213;28;20065;-81
2022/06/02 12:44:36;;;;;;;3.20;1.45;;;;;;;22.04;35.88;100171.31;4956185;28;20516;-82
2022/06/02 12:47:40;;;;;;;1.60;1.50;;;;;;;21.96;35.99;100162.56;4990398;28;20045;-82
2022/06/02 12:50:42;;;;;;;1.48;1.30;;;;;;;21.98;36.52;100172.13;4931878;28;20049;-82
2022/06/02 12:53:50;;;;;;;5.28;2.08;;;;;;;22.12;36.11;100170.28;4929499;28;20429;-82
2022/06/02 12:56:25;;;;;;;2.25;1.55;;;;;;;21.91;35.95;100165.03;4942940;28;20041;-81
2022/06/02 12:59:24;;;;;;;1.30;1.20;;;;;;;21.93;35.66;100163.78;5018703;28;20103;-82
2022/06/02 13:01:56;;;;;;;1.60;1.50;;;;;;;21.97;36.42;100154.22;4978442;28;20508;-82
2022/06/02 13:04:48;;;;;;;2.65;1.58;;;;;;;21.94;37.53;100161.91;5018558;28;20042;-82
2022/06/02 13:07:32;;;;;;;2.15;1.58;;;;;;;21.96;37.24;100160.66;4949571;28;20052;-81